Weather at Riverside Heliport

Public forecast

Using degrees Fahrenheit for public forecast. Weather courtesy of forecast.io.

Closest aviation weather report (METAR) to Riverside Heliport

Closest report is Glacier Park International Airport, 5.9 nm (11.0 km) NNE. Retrieved 2020/10/19 23:38 UTC (0 seconds ago):

KGPI 192338Z 24004KT 2SM -RA BR BKN045 OVC060 02/02 A2987

Closest aviation forecast (TAF) to Riverside Heliport

Closest forecast is Glacier Park International Airport, 5.9 nm (11.0 km) NNE. Retrieved 2020/10/19 18:24 UTC (5 hours ago):

TAF KGPI 191722Z 1918/2018 19004KT 6SM -SHRA BR OVC009 FM192000 21005KT P6SM -SHRA OVC020 FM200600 09005KT P6SM VCSH OVC030